Time;durP1;ratioP1;P1;durP2;ratioP2;P2;SDS_P1;SDS_P2;PMS_P1;PMS_P2;Temp;Humidity;BMP_temperature;BMP_pressure;BME280_temperature;BME280_humidity;BME280_pressure;Samples;Min_cycle;Max_cycle;Signal;HPM_P1;HPM_P2
2020/12/22 00:02:30;;;;;;;5.60;1.42;;;25.50;62.00;;;;;;6364483;22;20074;-75
2020/12/22 00:04:56;;;;;;;;;;;25.50;62.00;;;;;;6363939;22;19998;-76
2020/12/22 00:07:22;;;;;;;5.70;1.63;;;25.50;62.00;;;;;;6364463;22;19898;-76
2020/12/22 00:09:49;;;;;;;5.97;2.45;;;25.50;62.00;;;;;;6363422;22;20039;-76
2020/12/22 00:12:16;;;;;;;5.47;1.83;;;25.40;62.00;;;;;;6335195;22;20056;-77
2020/12/22 00:14:44;;;;;;;6.50;1.67;;;25.50;62.00;;;;;;6364494;22;20404;-77
2020/12/22 00:17:11;;;;;;;4.40;1.77;;;25.40;62.00;;;;;;6362930;22;20030;-76
2020/12/22 00:19:37;;;;;;;6.10;1.80;;;25.40;62.00;;;;;;6364221;22;20025;-76
2020/12/22 00:22:05;;;;;;;5.57;1.80;;;25.40;62.10;;;;;;6362745;22;19999;-76
2020/12/22 00:25:11;;;;;;;4.40;1.60;;;25.40;62.10;;;;;;6364254;22;20491;-77
2020/12/22 00:28:17;;;;;;;4.72;1.75;;;25.40;62.20;;;;;;6364104;22;20042;-77
2020/12/22 00:31:23;;;;;;;6.28;1.65;;;25.40;62.20;;;;;;6335306;22;20405;-77
2020/12/22 00:34:09;;;;;;;;;;;25.40;62.30;;;;;;6363942;22;20014;-76
2020/12/22 00:37:15;;;;;;;7.30;1.40;;;25.30;62.30;;;;;;6364405;22;20359;-76
2020/12/22 00:40:01;;;;;;;;;;;25.40;62.40;;;;;;6363830;22;20043;-78
2020/12/22 00:43:10;;;;;;;3.95;1.85;;;25.30;62.30;;;;;;6363492;22;19898;-77
2020/12/22 00:46:17;;;;;;;3.72;1.73;;;25.30;62.20;;;;;;6363814;22;19998;-77
2020/12/22 00:49:26;;;;;;;5.63;1.77;;;25.30;62.20;;;;;;6363702;22;19998;-77
2020/12/22 00:52:32;;;;;;;5.82;1.45;;;25.30;62.30;;;;;;6362446;22;20326;-77
2020/12/22 00:55:39;;;;;;;5.40;1.65;;;25.30;62.30;;;;;;6364106;22;20010;-75
2020/12/22 00:58:46;;;;;;;7.07;1.40;;;25.30;62.30;;;;;;6337910;22;20009;-76
2020/12/22 01:01:13;;;;;;;4.60;1.50;;;25.30;62.50;;;;;;6364818;22;20002;-77
2020/12/22 01:03:39;;;;;;;3.85;1.42;;;25.20;62.30;;;;;;6366532;22;20429;-77
2020/12/22 01:06:45;;;;;;;3.45;1.33;;;25.20;62.30;;;;;;6364401;22;20406;-77
2020/12/22 01:09:31;;;;;;;;;;;25.20;62.40;;;;;;6365490;22;20338;-75
2020/12/22 01:12:37;;;;;;;5.65;1.92;;;25.20;62.40;;;;;;6366065;22;19898;-74
2020/12/22 01:15:44;;;;;;;7.72;1.83;;;25.20;62.40;;;;;;6338031;22;20034;-76
2020/12/22 01:18:50;;;;;;;3.47;2.05;;;25.20;62.50;;;;;;6364717;22;20001;-77
2020/12/22 01:21:59;;;;;;;5.25;4.22;;;25.10;62.50;;;;;;6365271;22;20453;-77
2020/12/22 01:24:43;;;;;;;7.05;3.70;;;25.20;62.70;;;;;;6365958;22;20002;-77
2020/12/22 01:27:49;;;;;;;7.32;2.47;;;25.10;62.80;;;;;;6364231;22;20002;-76
2020/12/22 01:30:35;;;;;;;;;;;25.10;62.80;;;;;;6364842;22;20006;-77
2020/12/22 01:33:42;;;;;;;8.40;2.00;;;25.10;62.80;;;;;;6338261;22;19934;-77
2020/12/22 01:36:48;;;;;;;8.18;1.83;;;25.10;62.80;;;;;;6337775;22;20085;-77
2020/12/22 01:39:34;;;;;;;;;;;25.10;62.80;;;;;;6361688;22;20003;-74
2020/12/22 01:42:40;;;;;;;3.20;1.67;;;25.10;62.90;;;;;;6364121;22;19898;-77
2020/12/22 01:45:46;;;;;;;5.85;2.10;;;25.10;62.90;;;;;;6365300;22;20030;-76
2020/12/22 01:48:52;;;;;;;6.32;2.05;;;25.00;63.50;;;;;;6364296;22;20001;-75
2020/12/22 01:51:58;;;;;;;6.15;1.63;;;25.00;62.90;;;;;;6337039;22;20025;-76
2020/12/22 01:55:04;;;;;;;6.30;1.60;;;25.00;62.90;;;;;;6365550;22;20019;-76
2020/12/22 01:58:10;;;;;;;7.80;1.27;;;25.00;63.00;;;;;;6364495;22;20001;-79
2020/12/22 02:01:16;;;;;;;5.45;2.33;;;25.00;63.00;;;;;;6364315;22;20075;-77
2020/12/22 02:03:51;;;;;;;8.85;4.55;;;25.00;63.00;;;;;;6365479;22;20433;-79
2020/12/22 02:06:17;;;;;;;;;;;25.00;63.10;;;;;;6337300;22;20081;-79
2020/12/22 02:08:43;;;;;;;9.85;3.22;;;24.90;63.00;;;;;;6364884;22;20306;-77
2020/12/22 02:11:10;;;;;;;5.68;2.60;;;24.90;63.10;;;;;;6364989;22;20449;-78
2020/12/22 02:13:36;;;;;;;5.05;2.45;;;24.90;63.20;;;;;;6364208;22;20060;-78
2020/12/22 02:16:43;;;;;;;7.07;2.30;;;24.90;63.10;;;;;;6365798;22;20022;-79
2020/12/22 02:19:49;;;;;;;8.20;2.22;;;24.90;63.20;;;;;;6364684;22;20055;-78
2020/12/22 02:22:55;;;;;;;4.38;1.50;;;24.90;63.20;;;;;;6364451;22;20011;-79
2020/12/22 02:25:21;;;;;;;;;;;24.90;63.20;;;;;;6366093;22;19999;-77
2020/12/22 02:27:48;;;;;;;7.10;1.60;;;24.90;63.30;;;;;;6363445;22;19902;-76
2020/12/22 02:30:14;;;;;;;5.85;2.10;;;24.80;63.30;;;;;;6364860;22;20014;-73
2020/12/22 02:32:41;;;;;;;5.30;1.55;;;24.80;63.30;;;;;;6365111;22;19994;-75
2020/12/22 02:35:47;;;;;;;10.05;4.18;;;24.80;63.30;;;;;;6364424;22;20006;-78
2020/12/22 02:38:33;;;;;;;;;;;24.80;63.40;;;;;;6337819;22;19994;-77
2020/12/22 02:41:39;;;;;;;8.73;6.32;;;24.80;63.40;;;;;;6363909;22;20642;-79
2020/12/22 02:44:45;;;;;;;9.77;4.70;;;24.80;63.40;;;;;;6335887;22;20010;-77
2020/12/22 02:47:51;;;;;;;8.60;3.97;;;24.80;63.40;;;;;;6364646;22;19998;-78
2020/12/22 02:50:57;;;;;;;6.88;2.85;;;24.80;63.40;;;;;;6365388;22;20018;-80
2020/12/22 02:53:43;;;;;;;;;;;24.80;63.40;;;;;;6364511;22;20426;-80
2020/12/22 02:56:30;;;;;;;;;;;24.70;63.50;;;;;;6365891;22;19902;-79
2020/12/22 02:59:36;;;;;;;4.35;1.88;;;24.70;63.50;;;;;;6366637;22;20322;-79
2020/12/22 03:02:03;;;;;;;;;;;24.70;63.50;;;;;;6365107;22;19994;-78
2020/12/22 03:05:09;;;;;;;4.43;1.73;;;24.70;63.50;;;;;;6365665;22;19971;-78
2020/12/22 03:07:55;;;;;;;;;;;24.70;63.50;;;;;;6367306;22;20350;-77
2020/12/22 03:11:01;;;;;;;4.20;1.83;;;24.70;63.60;;;;;;6365852;22;19956;-78
2020/12/22 03:14:07;;;;;;;7.43;1.25;;;24.70;63.60;;;;;;6366805;22;20014;-76
2020/12/22 03:17:13;;;;;;;5.53;3.70;;;24.60;63.60;;;;;;6366530;22;20326;-77
2020/12/22 03:19:59;;;;;;;;;;;24.60;63.60;;;;;;6365323;22;20044;-76
2020/12/22 03:23:05;;;;;;;9.77;3.60;;;24.60;63.70;;;;;;6365673;22;19902;-78
2020/12/22 03:25:31;;;;;;;5.85;2.17;;;24.60;63.70;;;;;;6366198;22;20340;-77
2020/12/22 03:27:58;;;;;;;9.93;3.53;;;24.60;63.80;;;;;;6337068;22;20437;-77
2020/12/22 03:31:04;;;;;;;6.70;2.28;;;24.60;63.90;;;;;;6366041;22;20441;-77
2020/12/22 03:33:50;;;;;;;;;;;24.60;64.00;;;;;;6366271;22;20027;-76
2020/12/22 03:36:56;;;;;;;9.07;2.33;;;24.60;64.10;;;;;;6364855;22;19905;-77
2020/12/22 03:40:04;;;;;;;9.68;6.72;;;24.60;64.20;;;;;;6366719;22;20002;-76
2020/12/22 03:43:10;;;;;;;10.45;7.50;;;24.60;64.20;;;;;;6366741;22;20021;-76
2020/12/22 03:45:59;;;;;;;;;;;24.60;64.30;;;;;;6337091;22;20452;-81
2020/12/22 03:49:05;;;;;;;7.45;4.70;;;24.60;64.30;;;;;;6364196;22;19898;-76
2020/12/22 03:51:51;;;;;;;;;;;24.60;64.30;;;;;;6366692;22;20006;-76
2020/12/22 03:54:57;;;;;;;5.93;2.92;;;24.50;64.40;;;;;;6364960;22;19914;-76
2020/12/22 03:57:44;;;;;;;;;;;24.50;64.50;;;;;;6365624;22;19998;-80
2020/12/22 04:00:50;;;;;;;4.57;1.63;;;24.60;64.60;;;;;;6337819;22;19898;-75
2020/12/22 04:03:16;;;;;;;9.00;7.57;;;24.50;64.50;;;;;;6365037;22;20025;-76
2020/12/22 04:05:43;;;;;;;15.93;11.75;;;24.50;65.30;;;;;;6364323;22;20122;-76
2020/12/22 04:08:09;;;;;;;21.20;11.88;;;24.50;64.70;;;;;;6364810;22;20625;-80
2020/12/22 04:10:36;;;;;;;12.60;8.50;;;24.50;64.80;;;;;;6335748;22;20003;-77
2020/12/22 04:13:02;;;;;;;7.88;5.35;;;24.50;64.90;;;;;;6364201;22;20013;-82
2020/12/22 04:16:09;;;;;;;6.50;4.22;;;24.50;65.00;;;;;;6364727;22;20014;-75
2020/12/22 04:18:35;;;;;;;;;;;24.50;65.10;;;;;;6338187;22;20300;-78
2020/12/22 04:21:01;;;;;;;3.97;2.70;;;24.50;65.10;;;;;;6365894;22;19898;-79
2020/12/22 04:24:07;;;;;;;6.05;2.13;;;24.50;65.10;;;;;;6335345;22;20740;-77
2020/12/22 04:26:35;;;;;;;;;;;24.50;65.10;;;;;;6364932;22;20140;-76
2020/12/22 04:29:02;;;;;;;5.07;1.92;;;24.50;65.20;;;;;;6364152;22;19940;-78
2020/12/22 04:31:29;;;;;;;6.80;3.38;;;24.50;65.10;;;;;;6365015;22;20047;-79
2020/12/22 04:34:35;;;;;;;14.60;12.70;;;24.50;65.20;;;;;;6365589;22;20010;-79
2020/12/22 04:37:41;;;;;;;17.35;13.80;;;24.40;65.20;;;;;;6336010;22;20002;-74
2020/12/22 04:40:27;;;;;;;;;;;24.50;65.30;;;;;;6366177;22;20490;-78
2020/12/22 04:43:33;;;;;;;12.95;7.40;;;24.50;65.20;;;;;;6365850;22;19905;-78
2020/12/22 04:46:39;;;;;;;8.70;4.50;;;24.50;65.20;;;;;;6336654;22;20085;-78
2020/12/22 04:49:30;;;;;;;4.72;3.08;;;24.50;65.30;;;;;;6336840;22;20002;-77
2020/12/22 04:51:57;;;;;;;6.70;3.03;;;24.50;65.20;;;;;;6363236;22;20018;-76
2020/12/22 04:54:24;;;;;;;5.15;2.40;;;24.50;65.30;;;;;;6363174;22;20017;-76
2020/12/22 04:56:51;;;;;;;7.57;2.70;;;24.50;65.30;;;;;;6365655;22;20006;-76
2020/12/22 04:59:18;;;;;;;8.20;2.88;;;24.50;65.30;;;;;;6336034;22;20396;-77
2020/12/22 05:01:46;;;;;;;8.32;2.95;;;24.50;65.30;;;;;;6365345;22;20002;-78
2020/12/22 05:04:13;;;;;;;6.45;2.10;;;24.60;65.30;;;;;;6365271;22;20002;-79
2020/12/22 05:06:40;;;;;;;6.88;2.15;;;24.50;65.30;;;;;;6364770;22;20090;-79
2020/12/22 05:09:08;;;;;;;5.40;2.78;;;24.60;65.30;;;;;;6335840;22;20003;-79
2020/12/22 05:11:36;;;;;;;9.93;3.00;;;24.60;65.30;;;;;;6336263;22;20003;-75
2020/12/22 05:14:05;;;;;;;9.52;3.17;;;24.60;65.30;;;;;;6365704;22;20551;-76
2020/12/22 05:16:36;;;;;;;9.75;4.82;;;24.60;65.40;;;;;;6364296;22;20002;-78
2020/12/22 05:19:03;;;;;;;7.70;3.13;;;24.60;65.30;;;;;;6338268;22;20041;-78
2020/12/22 05:21:37;;;;;;;8.77;2.90;;;24.70;65.30;;;;;;6364681;22;20010;-77
2020/12/22 05:24:04;;;;;;;8.30;2.38;;;24.70;65.30;;;;;;6364024;22;20002;-76
2020/12/22 05:26:34;;;;;;;4.88;2.15;;;24.70;65.30;;;;;;6364021;22;20014;-77
2020/12/22 05:29:15;;;;;;;8.30;2.38;;;24.70;65.30;;;;;;6364464;22;20081;-76
2020/12/22 05:31:46;;;;;;;5.55;2.28;;;24.70;65.30;;;;;;6364985;22;20009;-77
2020/12/22 05:34:12;;;;;;;6.38;2.55;;;24.70;65.20;;;;;;6365464;22;20094;-75
2020/12/22 05:36:40;;;;;;;4.95;2.28;;;24.80;65.20;;;;;;6364180;22;20034;-72
2020/12/22 05:39:12;;;;;;;3.25;1.90;;;24.80;65.20;;;;;;6366253;22;19996;-72
2020/12/22 05:41:38;;;;;;;4.13;2.45;;;24.80;65.10;;;;;;6364361;22;20002;-72
2020/12/22 05:44:06;;;;;;;6.28;3.03;;;24.80;64.90;;;;;;6365949;22;19994;-72
2020/12/22 05:46:35;;;;;;;7.70;2.85;;;24.90;65.00;;;;;;6366600;22;20077;-74
2020/12/22 05:49:08;;;;;;;8.60;2.97;;;24.90;64.80;;;;;;6367682;22;19994;-74
2020/12/22 05:51:34;;;;;;;6.38;2.55;;;25.00;64.80;;;;;;6366225;22;20024;-74
2020/12/22 05:54:13;;;;;;;3.63;2.70;;;25.00;64.70;;;;;;6338793;22;20041;-72
2020/12/22 05:56:39;;;;;;;5.45;2.80;;;25.00;64.60;;;;;;6367821;22;20051;-73
2020/12/22 05:59:20;;;;;;;6.22;2.65;;;25.10;64.50;;;;;;6366373;22;20003;-74
2020/12/22 06:01:47;;;;;;;5.95;3.38;;;25.10;64.30;;;;;;6367659;22;20002;-74
2020/12/22 06:04:16;;;;;;;4.40;2.33;;;25.10;64.20;;;;;;6365901;22;20497;-73
2020/12/22 06:06:42;;;;;;;4.32;2.38;;;25.20;64.20;;;;;;6366985;22;19998;-80
2020/12/22 06:09:09;;;;;;;6.70;2.83;;;25.20;64.00;;;;;;6367667;22;20029;-77
2020/12/22 06:11:37;;;;;;;4.00;2.58;;;25.30;64.00;;;;;;6366338;22;19994;-78
2020/12/22 06:14:05;;;;;;;4.70;2.90;;;25.30;63.80;;;;;;6367232;22;20006;-76
2020/12/22 06:16:32;;;;;;;7.45;4.03;;;25.30;63.60;;;;;;6365919;22;20498;-79
2020/12/22 06:18:59;;;;;;;4.82;3.22;;;25.40;63.50;;;;;;6338689;22;20057;-78
2020/12/22 06:21:26;;;;;;;8.27;3.47;;;25.40;63.50;;;;;;6366102;22;20003;-80
2020/12/22 06:23:55;;;;;;;4.93;3.30;;;25.40;63.40;;;;;;6367384;22;20002;-79
2020/12/22 06:26:22;;;;;;;5.35;3.13;;;25.50;63.20;;;;;;6367793;22;20033;-81
2020/12/22 06:28:48;;;;;;;6.97;2.63;;;25.60;63.10;;;;;;6336128;22;20018;-82
2020/12/22 06:31:23;;;;;;;6.30;2.20;;;25.60;63.00;;;;;;6367799;22;19999;-79
2020/12/22 06:33:53;;;;;;;4.40;2.55;;;25.60;62.90;;;;;;6338026;22;20010;-80
2020/12/22 06:36:20;;;;;;;4.07;1.95;;;25.70;62.90;;;;;;6365727;22;20102;-85
2020/12/22 06:38:47;;;;;;;4.07;2.17;;;25.70;62.70;;;;;;6365195;22;20002;-85
2020/12/22 06:41:34;;;;;;;10.30;3.10;;;25.80;62.60;;;;;;6368245;22;20100;-80
2020/12/22 06:44:35;;;;;;;5.22;2.30;;;25.80;62.30;;;;;;6368004;22;19999;-79
2020/12/22 06:47:53;;;;;;;5.75;2.15;;;25.90;62.00;;;;;;6366148;22;20022;-79
2020/12/22 06:51:15;;;;;;;9.40;2.53;;;25.90;61.30;;;;;;6366908;22;20003;-83
2020/12/22 06:53:50;;;;;;;12.95;3.05;;;25.90;60.70;;;;;;6365377;22;20018;-78
2020/12/22 06:56:42;;;;;;;13.85;4.10;;;25.90;60.30;;;;;;6311007;22;20380;-83
2020/12/22 06:59:12;;;;;;;10.77;3.83;;;26.00;60.00;;;;;;6335706;22;20293;-77
2020/12/22 07:01:46;;;;;;;9.85;2.58;;;26.00;59.50;;;;;;6366749;22;20069;-85
2020/12/22 07:04:25;;;;;;;10.35;3.58;;;26.10;59.20;;;;;;6333312;22;20006;-80
2020/12/22 07:06:57;;;;;;;11.95;3.15;;;26.10;58.90;;;;;;6337176;22;20073;-77
2020/12/22 07:10:06;;;;;;;13.77;3.05;;;26.10;58.70;;;;;;6364295;22;20426;-76
2020/12/22 07:12:36;;;;;;;9.07;3.50;;;26.10;58.40;;;;;;6363754;22;19994;-76
2020/12/22 07:15:03;;;;;;;10.00;3.35;;;26.10;59.00;;;;;;6364246;22;20034;-76
2020/12/22 07:17:30;;;;;;;21.15;3.58;;;26.10;58.10;;;;;;6363492;22;20020;-76
2020/12/22 07:20:36;;;;;;;8.05;2.55;;;26.10;57.80;;;;;;6364065;22;20003;-77
2020/12/22 07:23:43;;;;;;;6.22;2.13;;;26.20;57.70;;;;;;6364268;22;20022;-77
2020/12/22 07:26:11;;;;;;;10.57;2.70;;;26.20;57.60;;;;;;6363500;22;20003;-78
2020/12/22 07:28:41;;;;;;;8.85;3.20;;;26.20;57.40;;;;;;6364126;22;20410;-75
2020/12/22 07:31:07;;;;;;;8.35;2.60;;;26.20;57.30;;;;;;6336298;22;19998;-75
2020/12/22 07:33:34;;;;;;;7.13;3.00;;;26.30;57.30;;;;;;6363707;22;20063;-76
2020/12/22 07:36:02;;;;;;;10.55;3.25;;;26.30;57.70;;;;;;6364103;22;20088;-77
2020/12/22 07:38:28;;;;;;;24.15;11.52;;;26.40;57.00;;;;;;6363262;22;20035;-76
2020/12/22 07:40:54;;;;;;;12.85;4.90;;;26.40;56.90;;;;;;6364432;22;19999;-75
2020/12/22 07:43:24;;;;;;;11.68;4.07;;;26.50;56.70;;;;;;6362137;22;20005;-78
2020/12/22 07:45:51;;;;;;;8.93;3.80;;;26.50;56.50;;;;;;6364256;22;20104;-76
2020/12/22 07:48:19;;;;;;;11.68;4.53;;;26.50;56.50;;;;;;6363579;22;20039;-79
2020/12/22 07:50:54;;;;;;;8.32;3.63;;;26.50;56.30;;;;;;6363259;22;20438;-78
2020/12/22 07:53:21;;;;;;;12.45;4.28;;;26.60;56.30;;;;;;6364610;22;20025;-76
2020/12/22 07:55:48;;;;;;;8.85;2.92;;;26.60;56.10;;;;;;6363419;22;20006;-78
2020/12/22 07:58:14;;;;;;;8.77;3.33;;;26.60;56.10;;;;;;6365227;22;20003;-76
2020/12/22 08:00:41;;;;;;;7.75;3.25;;;26.70;56.10;;;;;;6362040;22;19998;-77
2020/12/22 08:03:18;;;;;;;10.77;3.10;;;26.70;55.90;;;;;;6363385;22;20037;-75
2020/12/22 08:06:17;;;;;;;9.55;2.63;;;26.80;55.90;;;;;;6362333;22;20383;-75
2020/12/22 08:08:43;;;;;;;14.00;3.70;;;26.80;55.80;;;;;;6276938;22;20010;-76
2020/12/22 08:11:24;;;;;;;10.80;3.40;;;26.80;55.80;;;;;;6362781;22;20013;-75
2020/12/22 08:13:52;;;;;;;10.82;3.58;;;26.90;55.70;;;;;;6361895;22;20496;-77
2020/12/22 08:16:20;;;;;;;10.55;3.33;;;26.90;55.70;;;;;;6363952;22;20535;-80
2020/12/22 08:19:27;;;;;;;6.55;3.00;;;27.00;55.60;;;;;;6363841;22;20003;-81
2020/12/22 08:22:37;;;;;;;11.45;4.20;;;27.00;55.50;;;;;;6363717;22;20002;-80
2020/12/22 08:25:43;;;;;;;9.23;3.25;;;27.00;55.40;;;;;;6364811;22;20006;-79
2020/12/22 08:28:49;;;;;;;10.88;3.45;;;27.00;55.30;;;;;;6365024;22;20006;-80
2020/12/22 08:31:20;;;;;;;6.50;3.33;;;27.10;55.10;;;;;;6363220;22;20002;-79
2020/12/22 08:34:26;;;;;;;9.15;3.85;;;27.10;55.00;;;;;;6364804;22;20006;-77
2020/12/22 08:37:30;;;;;;;9.43;3.33;;;27.20;54.90;;;;;;6364461;22;20009;-78
2020/12/22 08:40:48;;;;;;;10.43;2.70;;;27.20;54.70;;;;;;6335807;22;20033;-77
2020/12/22 08:43:54;;;;;;;6.95;2.33;;;27.30;54.70;;;;;;6363407;22;20082;-78
2020/12/22 08:46:22;;;;;;;8.98;2.97;;;27.40;54.50;;;;;;6364862;22;20009;-82
2020/12/22 08:48:49;;;;;;;11.48;4.60;;;27.40;54.40;;;;;;6364189;22;20007;-81
2020/12/22 08:52:07;;;;;;;9.13;3.20;;;27.40;54.30;;;;;;6364845;22;20018;-81
2020/12/22 08:55:13;;;;;;;7.22;2.80;;;27.50;54.20;;;;;;6364968;22;20010;-81
2020/12/22 08:57:40;;;;;;;7.40;3.00;;;27.50;54.10;;;;;;6362377;22;20349;-82
2020/12/22 09:00:14;;;;;;;10.45;2.47;;;27.60;54.00;;;;;;6364043;22;20784;-82
2020/12/22 09:03:20;;;;;;;21.65;3.85;;;27.60;53.90;;;;;;6364575;22;20006;-81
2020/12/22 09:06:32;;;;;;;278.30;31.20;;;27.60;53.80;;;;;;6362481;22;20037;-80
2020/12/22 09:09:27;;;;;;;167.18;22.48;;;27.60;53.80;;;;;;6363284;22;20006;-81
2020/12/22 09:12:34;;;;;;;84.15;10.88;;;27.70;53.80;;;;;;6364638;22;20052;-82
2020/12/22 09:15:40;;;;;;;43.40;8.63;;;27.70;53.80;;;;;;6363584;22;20063;-82
2020/12/22 09:18:55;;;;;;;47.33;6.00;;;27.70;53.80;;;;;;6363098;22;20054;-80
2020/12/22 09:21:42;;;;;;;32.87;6.50;;;27.80;53.90;;;;;;6366214;22;19994;-82
2020/12/22 09:24:48;;;;;;;30.58;4.88;;;27.80;54.10;;;;;;6365736;22;20010;-82
2020/12/22 09:27:34;;;;;;;12.25;3.83;;;27.90;56.10;;;;;;6365116;22;20325;-82
2020/12/22 09:30:41;;;;;;;12.48;3.08;;;27.90;58.10;;;;;;6366637;22;20003;-81
2020/12/22 09:33:47;;;;;;;11.35;2.88;;;27.90;59.10;;;;;;6366746;22;19995;-80
2020/12/22 09:36:53;;;;;;;9.98;2.83;;;27.90;59.40;;;;;;6363837;22;20016;-81
2020/12/22 09:39:59;;;;;;;12.48;2.97;;;27.90;59.20;;;;;;6365272;22;20055;-80
2020/12/22 09:43:03;;;;;;;7.60;2.60;;;28.00;59.40;;;;;;6367197;22;19995;-81
2020/12/22 09:45:30;;;;;;;17.15;4.18;;;28.00;59.30;;;;;;6337303;22;20017;-81
2020/12/22 09:47:56;;;;;;;8.57;3.30;;;28.10;59.00;;;;;;6366040;22;20318;-82
2020/12/22 09:51:02;;;;;;;9.05;3.17;;;28.10;58.70;;;;;;6366722;22;20032;-81
2020/12/22 09:54:08;;;;;;;7.82;2.25;;;28.10;58.30;;;;;;6364969;22;20464;-78
2020/12/22 09:57:14;;;;;;;9.05;2.30;;;28.20;57.90;;;;;;6366225;22;20423;-82
2020/12/22 10:00:20;;;;;;;8.93;2.60;;;28.20;57.30;;;;;;6365998;22;19994;-81
2020/12/22 10:03:26;;;;;;;9.93;3.22;;;28.30;56.70;;;;;;6364411;22;20017;-77
2020/12/22 10:06:35;;;;;;;9.50;3.20;;;28.30;56.30;;;;;;6363451;22;19995;-78
2020/12/22 10:09:19;;;;;;;8.07;2.42;;;28.40;55.90;;;;;;6365781;22;20009;-79
2020/12/22 10:12:26;;;;;;;8.82;2.63;;;28.50;55.50;;;;;;6360777;22;20009;-79
2020/12/22 10:15:17;;;;;;;7.25;2.13;;;28.50;55.30;;;;;;6364117;22;20010;-80
2020/12/22 10:18:23;;;;;;;5.30;2.10;;;28.60;55.40;;;;;;6338274;22;20003;-80
2020/12/22 10:21:29;;;;;;;6.25;2.63;;;28.70;54.80;;;;;;6365673;22;20013;-83
2020/12/22 10:24:35;;;;;;;6.22;2.25;;;28.80;54.60;;;;;;6336154;22;20432;-79
2020/12/22 10:27:41;;;;;;;4.82;2.42;;;28.80;54.40;;;;;;6364850;22;20078;-81
2020/12/22 10:30:47;;;;;;;4.32;1.55;;;28.80;54.00;;;;;;6365681;22;20059;-82
2020/12/22 10:33:53;;;;;;;7.40;1.95;;;28.90;54.20;;;;;;6365397;22;19994;-83
2020/12/22 10:36:59;;;;;;;6.40;1.67;;;28.90;54.00;;;;;;6364224;22;20006;-81
2020/12/22 10:40:05;;;;;;;5.70;3.00;;;28.90;53.80;;;;;;6365786;22;20330;-81
2020/12/22 10:43:11;;;;;;;8.50;3.03;;;29.00;53.70;;;;;;6366092;22;19994;-80
2020/12/22 10:45:58;;;;;;;7.18;2.38;;;29.00;53.50;;;;;;6364741;22;19999;-83
2020/12/22 10:49:04;;;;;;;6.82;2.53;;;29.10;53.40;;;;;;6364690;22;20364;-80
2020/12/22 10:52:11;;;;;;;8.25;1.80;;;29.10;53.20;;;;;;6365316;22;20018;-79
2020/12/22 10:55:14;;;;;;;5.22;1.80;;;29.10;52.90;;;;;;6364865;22;20010;-82
2020/12/22 10:58:20;;;;;;;8.73;2.58;;;29.00;52.80;;;;;;6337252;22;20032;-79
2020/12/22 11:00:48;;;;;;;7.75;2.42;;;29.10;52.90;;;;;;6366029;22;19998;-84
2020/12/22 11:03:19;;;;;;;6.43;1.70;;;29.10;52.90;;;;;;6365304;22;20002;-83
2020/12/22 11:07:00;;;;;;;7.95;1.38;;;29.10;52.70;;;;;;6364887;22;20005;-83
2020/12/22 11:09:19;;;;;;;2.40;1.38;;;29.20;52.50;;;;;;6360691;22;19999;-80
2020/12/22 11:12:25;;;;;;;3.85;1.70;;;29.20;52.60;;;;;;6336722;22;20330;-83
2020/12/22 11:15:32;;;;;;;4.28;1.90;;;29.30;52.50;;;;;;6364288;22;20472;-83
2020/12/22 11:18:38;;;;;;;8.45;2.33;;;29.30;52.70;;;;;;6365417;22;20545;-84
2020/12/22 11:21:53;;;;;;;2.80;1.48;;;29.40;52.60;;;;;;6365324;22;20005;-79
2020/12/22 11:25:00;;;;;;;2.22;1.42;;;29.40;52.40;;;;;;6364054;22;20441;-80
2020/12/22 11:27:26;;;;;;;3.90;1.70;;;29.50;52.30;;;;;;6365008;22;20350;-82
2020/12/22 11:30:12;;;;;;;4.18;1.83;;;29.50;52.20;;;;;;6365539;22;20021;-82
2020/12/22 11:33:18;;;;;;;5.75;1.48;;;29.50;52.00;;;;;;6364262;22;19999;-82
2020/12/22 11:36:24;;;;;;;1.85;1.35;;;29.60;52.00;;;;;;6364244;22;20009;-80
2020/12/22 11:39:30;;;;;;;3.28;1.27;;;29.50;51.90;;;;;;6364754;22;20520;-77
2020/12/22 11:42:40;;;;;;;5.50;1.83;;;29.60;52.00;;;;;;6363648;22;20310;-76
2020/12/22 11:45:38;;;;;;;7.93;2.15;;;29.60;51.80;;;;;;6363982;22;19998;-79
2020/12/22 11:48:44;;;;;;;7.30;1.98;;;29.60;51.70;;;;;;6337590;22;20069;-80
2020/12/22 11:51:50;;;;;;;9.90;2.15;;;29.60;51.60;;;;;;6364504;22;20787;-80
2020/12/22 11:54:57;;;;;;;10.80;3.00;;;29.70;51.60;;;;;;6362507;22;20052;-75
2020/12/22 11:57:23;;;;;;;8.20;2.92;;;29.90;51.70;;;;;;6365148;22;20084;-85
2020/12/22 11:59:50;;;;;;;7.72;2.83;;;29.90;51.40;;;;;;6365687;22;19998;-80
2020/12/22 12:02:18;;;;;;;5.00;2.10;;;29.90;51.20;;;;;;6363941;22;20019;-77
2020/12/22 12:04:45;;;;;;;6.80;2.55;;;29.90;51.20;;;;;;6364894;22;19995;-80
2020/12/22 12:07:13;;;;;;;6.35;2.28;;;29.90;51.20;;;;;;6363220;22;20047;-80
2020/12/22 12:09:40;;;;;;;5.50;2.63;;;29.90;50.90;;;;;;6336593;22;20010;-80
2020/12/22 12:12:07;;;;;;;6.50;2.40;;;29.90;50.90;;;;;;6363275;22;20338;-79
2020/12/22 12:14:33;;;;;;;7.72;2.47;;;29.90;51.00;;;;;;6364174;22;20007;-79
2020/12/22 12:17:00;;;;;;;6.78;1.83;;;30.00;51.20;;;;;;6364142;22;20046;-78
2020/12/22 12:19:26;;;;;;;8.27;2.55;;;29.90;51.20;;;;;;6362550;22;20005;-78
2020/12/22 12:21:56;;;;;;;6.13;2.25;;;30.00;51.20;;;;;;6364225;22;20005;-78
2020/12/22 12:24:23;;;;;;;7.85;2.95;;;29.90;51.00;;;;;;6362894;22;20109;-77
2020/12/22 12:26:49;;;;;;;7.32;2.05;;;30.00;50.90;;;;;;6364834;22;20382;-78
2020/12/22 12:29:16;;;;;;;6.57;3.08;;;29.90;50.80;;;;;;6363282;22;20314;-77
2020/12/22 12:32:19;;;;;;;8.80;2.10;;;30.00;50.90;;;;;;6365100;22;20361;-76
2020/12/22 12:34:54;;;;;;;8.70;2.92;;;30.00;50.90;;;;;;6337115;22;20017;-75
2020/12/22 12:37:20;;;;;;;7.63;2.50;;;30.00;50.80;;;;;;6335835;22;20002;-76
2020/12/22 12:40:26;;;;;;;5.53;2.75;;;30.00;50.70;;;;;;6364074;22;20326;-76
2020/12/22 12:42:53;;;;;;;7.55;2.13;;;30.10;50.80;;;;;;6363221;22;20026;-78
2020/12/22 12:45:41;;;;;;;6.75;2.60;;;30.10;50.60;;;;;;6363273;22;20044;-75
2020/12/22 12:48:09;;;;;;;6.32;2.40;;;30.10;50.50;;;;;;6336737;22;20009;-78
2020/12/22 12:51:17;;;;;;;10.18;3.35;;;30.10;50.20;;;;;;6335063;22;20006;-77
2020/12/22 12:54:25;;;;;;;8.90;2.88;;;30.10;49.80;;;;;;6333207;22;20450;-79
2020/12/22 12:57:33;;;;;;;11.82;2.95;;;30.10;49.50;;;;;;6334168;22;20575;-79
2020/12/22 13:00:41;;;;;;;8.95;4.05;;;30.10;49.60;;;;;;6333753;22;20003;-76
2020/12/22 13:03:10;;;;;;;8.23;4.07;;;30.10;49.40;;;;;;6333121;22;20308;-79
2020/12/22 13:05:40;;;;;;;9.52;3.42;;;30.10;49.30;;;;;;6331450;22;20400;-77
2020/12/22 13:08:07;;;;;;;10.60;3.65;;;30.10;49.20;;;;;;6331524;22;20437;-75
2020/12/22 13:11:13;;;;;;;8.73;3.53;;;30.20;49.30;;;;;;6334259;22;19999;-76
2020/12/22 13:14:20;;;;;;;8.38;2.92;;;30.20;49.30;;;;;;6333720;22;20013;-76
2020/12/22 13:17:26;;;;;;;7.60;3.85;;;30.20;49.40;;;;;;6332857;22;20031;-78
2020/12/22 13:20:33;;;;;;;4.18;2.08;;;30.20;49.40;;;;;;6333465;22;20007;-75
2020/12/22 13:23:39;;;;;;;5.90;1.73;;;30.20;49.50;;;;;;6334052;22;20065;-80
2020/12/22 13:26:07;;;;;;;6.57;2.45;;;30.20;49.60;;;;;;6333347;22;20314;-78
2020/12/22 13:28:34;;;;;;;7.43;2.25;;;30.20;49.70;;;;;;6333403;22;20449;-77
2020/12/22 13:31:00;;;;;;;9.88;5.65;;;30.20;49.70;;;;;;6334437;22;20022;-76
2020/12/22 13:33:29;;;;;;;9.88;7.28;;;30.20;49.70;;;;;;6332224;22;20014;-75
2020/12/22 13:35:56;;;;;;;6.93;4.50;;;30.30;49.80;;;;;;6334515;22;19999;-76
2020/12/22 13:38:24;;;;;;;6.20;3.13;;;30.30;49.70;;;;;;6332206;22;20023;-75
2020/12/22 13:40:53;;;;;;;4.85;2.35;;;30.30;49.60;;;;;;6334211;22;20028;-74
2020/12/22 13:43:20;;;;;;;8.00;3.75;;;30.30;49.50;;;;;;6333645;22;20002;-81
2020/12/22 13:45:47;;;;;;;8.73;2.83;;;30.20;49.40;;;;;;6305836;22;20003;-78
2020/12/22 13:48:13;;;;;;;5.90;2.13;;;30.20;49.30;;;;;;6334076;22;20406;-77
2020/12/22 13:50:40;;;;;;;6.32;1.90;;;30.20;49.20;;;;;;6332963;22;19995;-77
2020/12/22 13:53:06;;;;;;;4.60;2.35;;;30.20;49.10;;;;;;6364369;22;20014;-77
2020/12/22 13:55:33;;;;;;;6.65;2.47;;;30.10;48.90;;;;;;6364032;22;20071;-75
2020/12/22 13:57:59;;;;;;;7.15;3.10;;;30.10;48.70;;;;;;6366448;22;20014;-73
2020/12/22 14:00:26;;;;;;;5.20;3.10;;;30.10;48.50;;;;;;6336347;22;20010;-74
2020/12/22 14:02:53;;;;;;;6.90;2.30;;;30.10;48.50;;;;;;6365550;22;20047;-75
2020/12/22 14:05:19;;;;;;;5.60;2.63;;;30.10;48.40;;;;;;6364630;22;20325;-74
2020/12/22 14:07:46;;;;;;;6.07;2.15;;;30.10;48.40;;;;;;6364361;22;20016;-74
2020/12/22 14:10:12;;;;;;;6.53;3.13;;;30.20;48.50;;;;;;6365205;22;20002;-78
2020/12/22 14:12:43;;;;;;;12.18;3.08;;;30.20;48.40;;;;;;6364172;22;19998;-76
2020/12/22 14:15:29;;;;;;;11.18;3.35;;;30.30;48.80;;;;;;6337662;22;20041;-76
2020/12/22 14:18:35;;;;;;;9.68;3.33;;;30.30;49.50;;;;;;6364688;22;20322;-75
2020/12/22 14:21:02;;;;;;;9.25;3.20;;;30.40;50.20;;;;;;6363569;22;20426;-79
2020/12/22 14:23:29;;;;;;;10.13;2.83;;;30.50;51.00;;;;;;6365103;22;20002;-74
2020/12/22 14:26:04;;;;;;;14.73;4.15;;;30.60;51.30;;;;;;6363990;22;20026;-79